sensor_id;sensor_type;location;lat;lon;timestamp;P1;durP1;ratioP1;P2;durP2;ratioP2
30458;SDS011;17254;50.976;7.034;2023-05-07T00:00:03;8.90;;;7.00;;
30458;SDS011;17254;50.976;7.034;2023-05-07T00:00:13;8.94;;;7.04;;
30458;SDS011;17254;50.976;7.034;2023-05-07T00:00:23;7.96;;;6.97;;
30458;SDS011;17254;50.976;7.034;2023-05-07T00:00:29;8.00;;;7.20;;
30458;SDS011;17254;50.976;7.034;2023-05-07T00:00:36;8.06;;;7.26;;
30458;SDS011;17254;50.976;7.034;2023-05-07T00:00:42;7.85;;;7.05;;
30458;SDS011;17254;50.976;7.034;2023-05-07T00:00:48;7.90;;;7.00;;
30458;SDS011;17254;50.976;7.034;2023-05-07T00:00:54;8.14;;;7.10;;
30458;SDS011;17254;50.976;7.034;2023-05-07T00:01:01;7.57;;;6.70;;
30458;SDS011;17254;50.976;7.034;2023-05-07T00:01:07;7.67;;;6.47;;
30458;SDS011;17254;50.976;7.034;2023-05-07T00:01:13;7.80;;;6.78;;
30458;SDS011;17254;50.976;7.034;2023-05-07T00:01:19;7.65;;;6.65;;
30458;SDS011;17254;50.976;7.034;2023-05-07T00:01:25;7.70;;;6.70;;
30458;SDS011;17254;50.976;7.034;2023-05-07T00:01:31;8.57;;;7.40;;
30458;SDS011;17254;50.976;7.034;2023-05-07T00:01:38;8.73;;;7.60;;
30458;SDS011;17254;50.976;7.034;2023-05-07T00:01:44;8.90;;;7.43;;
30458;SDS011;17254;50.976;7.034;2023-05-07T00:01:50;9.07;;;7.70;;
30458;SDS011;17254;50.976;7.034;2023-05-07T00:01:57;9.17;;;7.67;;
30458;SDS011;17254;50.976;7.034;2023-05-07T00:02:03;8.68;;;7.07;;
30458;SDS011;17254;50.976;7.034;2023-05-07T00:02:09;8.73;;;7.10;;
30458;SDS011;17254;50.976;7.034;2023-05-07T00:02:15;8.32;;;7.28;;
30458;SDS011;17254;50.976;7.034;2023-05-07T00:02:20;8.33;;;7.17;;
30458;SDS011;17254;50.976;7.034;2023-05-07T00:02:27;8.74;;;7.02;;
30458;SDS011;17254;50.976;7.034;2023-05-07T00:02:33;8.65;;;7.20;;
30458;SDS011;17254;50.976;7.034;2023-05-07T00:02:39;8.52;;;7.30;;
30458;SDS011;17254;50.976;7.034;2023-05-07T00:02:45;8.88;;;7.38;;
30458;SDS011;17254;50.976;7.034;2023-05-07T00:02:51;8.60;;;7.50;;
30458;SDS011;17254;50.976;7.034;2023-05-07T00:02:57;8.50;;;7.63;;
30458;SDS011;17254;50.976;7.034;2023-05-07T00:03:03;10.18;;;7.85;;
30458;SDS011;17254;50.976;7.034;2023-05-07T00:03:11;10.93;;;7.87;;
30458;SDS011;17254;50.976;7.034;2023-05-07T00:03:18;11.10;;;7.93;;
30458;SDS011;17254;50.976;7.034;2023-05-07T00:03:25;11.77;;;7.97;;
30458;SDS011;17254;50.976;7.034;2023-05-07T00:03:31;11.13;;;7.82;;
30458;SDS011;17254;50.976;7.034;2023-05-07T00:03:37;10.17;;;7.67;;
30458;SDS011;17254;50.976;7.034;2023-05-07T00:03:44;10.48;;;7.56;;
30458;SDS011;17254;50.976;7.034;2023-05-07T00:03:50;10.20;;;7.35;;
30458;SDS011;17254;50.976;7.034;2023-05-07T00:03:55;9.87;;;7.27;;
30458;SDS011;17254;50.976;7.034;2023-05-07T00:04:01;9.25;;;7.32;;
30458;SDS011;17254;50.976;7.034;2023-05-07T00:04:08;9.00;;;7.38;;
30458;SDS011;17254;50.976;7.034;2023-05-07T00:04:14;8.25;;;7.40;;
30458;SDS011;17254;50.976;7.034;2023-05-07T00:04:20;8.35;;;7.43;;
30458;SDS011;17254;50.976;7.034;2023-05-07T00:04:26;9.10;;;7.47;;
30458;SDS011;17254;50.976;7.034;2023-05-07T00:04:33;9.27;;;7.45;;
30458;SDS011;17254;50.976;7.034;2023-05-07T00:04:42;9.41;;;7.44;;
30458;SDS011;17254;50.976;7.034;2023-05-07T00:04:49;9.53;;;7.80;;
30458;SDS011;17254;50.976;7.034;2023-05-07T00:04:55;9.00;;;7.84;;
30458;SDS011;17254;50.976;7.034;2023-05-07T00:05:01;8.77;;;7.67;;
30458;SDS011;17254;50.976;7.034;2023-05-07T00:05:07;9.80;;;8.00;;
30458;SDS011;17254;50.976;7.034;2023-05-07T00:05:13;9.80;;;7.90;;
30458;SDS011;17254;50.976;7.034;2023-05-07T00:05:20;9.95;;;7.80;;
30458;SDS011;17254;50.976;7.034;2023-05-07T00:05:26;9.63;;;7.80;;
30458;SDS011;17254;50.976;7.034;2023-05-07T00:05:31;9.38;;;8.13;;
30458;SDS011;17254;50.976;7.034;2023-05-07T00:05:37;9.00;;;8.07;;
30458;SDS011;17254;50.976;7.034;2023-05-07T00:05:44;8.90;;;8.00;;
30458;SDS011;17254;50.976;7.034;2023-05-07T00:05:50;8.80;;;7.90;;
30458;SDS011;17254;50.976;7.034;2023-05-07T00:05:58;8.73;;;7.83;;
30458;SDS011;17254;50.976;7.034;2023-05-07T00:06:05;8.50;;;7.60;;
30458;SDS011;17254;50.976;7.034;2023-05-07T00:06:11;8.82;;;7.53;;
30458;SDS011;17254;50.976;7.034;2023-05-07T00:06:17;9.03;;;7.67;;
30458;SDS011;17254;50.976;7.034;2023-05-07T00:06:24;9.47;;;7.63;;
30458;SDS011;17254;50.976;7.034;2023-05-07T00:06:32;10.07;;;7.43;;
30458;SDS011;17254;50.976;7.034;2023-05-07T00:06:38;9.87;;;7.53;;
30458;SDS011;17254;50.976;7.034;2023-05-07T00:06:43;9.45;;;7.47;;
30458;SDS011;17254;50.976;7.034;2023-05-07T00:06:49;9.18;;;7.20;;
30458;SDS011;17254;50.976;7.034;2023-05-07T00:06:56;9.00;;;7.27;;
30458;SDS011;17254;50.976;7.034;2023-05-07T00:07:02;8.73;;;7.50;;
30458;SDS011;17254;50.976;7.034;2023-05-07T00:07:07;8.77;;;7.40;;
30458;SDS011;17254;50.976;7.034;2023-05-07T00:07:13;8.77;;;7.32;;
30458;SDS011;17254;50.976;7.034;2023-05-07T00:07:19;8.80;;;7.60;;
30458;SDS011;17254;50.976;7.034;2023-05-07T00:07:25;8.90;;;7.60;;
30458;SDS011;17254;50.976;7.034;2023-05-07T00:07:31;9.30;;;7.63;;
30458;SDS011;17254;50.976;7.034;2023-05-07T00:07:37;9.52;;;7.57;;
30458;SDS011;17254;50.976;7.034;2023-05-07T00:07:43;9.38;;;7.68;;
30458;SDS011;17254;50.976;7.034;2023-05-07T00:07:50;9.28;;;7.60;;
30458;SDS011;17254;50.976;7.034;2023-05-07T00:07:57;9.26;;;7.56;;
30458;SDS011;17254;50.976;7.034;2023-05-07T00:08:03;9.10;;;7.55;;
30458;SDS011;17254;50.976;7.034;2023-05-07T00:08:10;8.87;;;7.67;;
30458;SDS011;17254;50.976;7.034;2023-05-07T00:08:16;9.33;;;7.60;;
30458;SDS011;17254;50.976;7.034;2023-05-07T00:08:22;9.48;;;7.60;;
30458;SDS011;17254;50.976;7.034;2023-05-07T00:08:28;9.37;;;7.53;;
30458;SDS011;17254;50.976;7.034;2023-05-07T00:08:34;9.95;;;7.47;;
30458;SDS011;17254;50.976;7.034;2023-05-07T00:08:39;10.55;;;7.40;;
30458;SDS011;17254;50.976;7.034;2023-05-07T00:08:45;10.25;;;7.50;;
30458;SDS011;17254;50.976;7.034;2023-05-07T00:08:51;10.35;;;7.50;;
30458;SDS011;17254;50.976;7.034;2023-05-07T00:08:58;10.03;;;7.57;;
30458;SDS011;17254;50.976;7.034;2023-05-07T00:09:05;9.24;;;7.61;;
30458;SDS011;17254;50.976;7.034;2023-05-07T00:09:11;9.15;;;7.80;;
30458;SDS011;17254;50.976;7.034;2023-05-07T00:09:17;9.15;;;7.88;;
30458;SDS011;17254;50.976;7.034;2023-05-07T00:09:23;8.73;;;7.80;;
30458;SDS011;17254;50.976;7.034;2023-05-07T00:09:29;8.93;;;7.57;;
30458;SDS011;17254;50.976;7.034;2023-05-07T00:09:35;9.50;;;7.57;;
30458;SDS011;17254;50.976;7.034;2023-05-07T00:09:42;9.18;;;7.32;;
30458;SDS011;17254;50.976;7.034;2023-05-07T00:09:48;9.30;;;7.25;;
30458;SDS011;17254;50.976;7.034;2023-05-07T00:09:54;9.52;;;7.35;;
30458;SDS011;17254;50.976;7.034;2023-05-07T00:10:00;9.80;;;7.60;;
30458;SDS011;17254;50.976;7.034;2023-05-07T00:10:06;9.25;;;7.68;;
30458;SDS011;17254;50.976;7.034;2023-05-07T00:10:13;9.17;;;7.70;;
30458;SDS011;17254;50.976;7.034;2023-05-07T00:10:19;9.00;;;7.73;;
30458;SDS011;17254;50.976;7.034;2023-05-07T00:10:25;9.15;;;7.82;;
30458;SDS011;17254;50.976;7.034;2023-05-07T00:10:31;9.07;;;7.72;;
30458;SDS011;17254;50.976;7.034;2023-05-07T00:10:37;8.70;;;7.68;;
30458;SDS011;17254;50.976;7.034;2023-05-07T00:10:43;8.70;;;7.70;;
30458;SDS011;17254;50.976;7.034;2023-05-07T00:10:49;8.90;;;7.63;;
30458;SDS011;17254;50.976;7.034;2023-05-07T00:10:54;9.85;;;7.60;;
30458;SDS011;17254;50.976;7.034;2023-05-07T00:11:01;10.56;;;7.70;;
30458;SDS011;17254;50.976;7.034;2023-05-07T00:11:08;11.48;;;7.78;;
30458;SDS011;17254;50.976;7.034;2023-05-07T00:11:14;11.60;;;7.78;;
30458;SDS011;17254;50.976;7.034;2023-05-07T00:11:20;11.40;;;7.60;;
30458;SDS011;17254;50.976;7.034;2023-05-07T00:11:26;9.85;;;7.43;;
30458;SDS011;17254;50.976;7.034;2023-05-07T00:11:32;8.88;;;7.35;;
30458;SDS011;17254;50.976;7.034;2023-05-07T00:11:38;8.47;;;7.57;;
30458;SDS011;17254;50.976;7.034;2023-05-07T00:11:44;8.77;;;7.72;;
30458;SDS011;17254;50.976;7.034;2023-05-07T00:11:50;8.82;;;7.80;;
30458;SDS011;17254;50.976;7.034;2023-05-07T00:11:56;9.05;;;7.68;;
30458;SDS011;17254;50.976;7.034;2023-05-07T00:12:01;9.57;;;7.50;;
30458;SDS011;17254;50.976;7.034;2023-05-07T00:12:08;9.48;;;7.50;;
30458;SDS011;17254;50.976;7.034;2023-05-07T00:12:13;9.05;;;7.07;;
30458;SDS011;17254;50.976;7.034;2023-05-07T00:12:19;9.02;;;7.10;;
30458;SDS011;17254;50.976;7.034;2023-05-07T00:12:25;8.88;;;7.18;;
30458;SDS011;17254;50.976;7.034;2023-05-07T00:12:31;8.68;;;7.20;;
30458;SDS011;17254;50.976;7.034;2023-05-07T00:12:40;8.87;;;7.00;;
30458;SDS011;17254;50.976;7.034;2023-05-07T00:12:46;9.10;;;7.18;;
30458;SDS011;17254;50.976;7.034;2023-05-07T00:12:52;9.60;;;7.28;;
30458;SDS011;17254;50.976;7.034;2023-05-07T00:12:58;9.73;;;7.40;;
30458;SDS011;17254;50.976;7.034;2023-05-07T00:13:03;9.70;;;7.30;;
30458;SDS011;17254;50.976;7.034;2023-05-07T00:13:10;9.63;;;7.37;;
30458;SDS011;17254;50.976;7.034;2023-05-07T00:13:16;9.80;;;7.30;;
30458;SDS011;17254;50.976;7.034;2023-05-07T00:13:21;9.43;;;7.28;;
30458;SDS011;17254;50.976;7.034;2023-05-07T00:13:27;8.93;;;7.20;;
30458;SDS011;17254;50.976;7.034;2023-05-07T00:13:35;9.22;;;7.32;;
30458;SDS011;17254;50.976;7.034;2023-05-07T00:13:41;8.98;;;7.35;;
30458;SDS011;17254;50.976;7.034;2023-05-07T00:13:47;8.65;;;7.28;;
30458;SDS011;17254;50.976;7.034;2023-05-07T00:13:54;8.97;;;7.13;;
30458;SDS011;17254;50.976;7.034;2023-05-07T00:14:02;9.50;;;7.26;;
30458;SDS011;17254;50.976;7.034;2023-05-07T00:14:08;9.73;;;7.23;;
30458;SDS011;17254;50.976;7.034;2023-05-07T00:14:14;9.63;;;7.30;;
30458;SDS011;17254;50.976;7.034;2023-05-07T00:14:20;9.85;;;7.50;;
30458;SDS011;17254;50.976;7.034;2023-05-07T00:14:26;9.20;;;7.50;;
30458;SDS011;17254;50.976;7.034;2023-05-07T00:14:32;8.75;;;7.25;;
30458;SDS011;17254;50.976;7.034;2023-05-07T00:14:37;7.97;;;7.18;;
30458;SDS011;17254;50.976;7.034;2023-05-07T00:14:43;7.90;;;7.07;;
30458;SDS011;17254;50.976;7.034;2023-05-07T00:14:50;7.73;;;6.90;;
30458;SDS011;17254;50.976;7.034;2023-05-07T00:14:56;8.30;;;6.93;;
30458;SDS011;17254;50.976;7.034;2023-05-07T00:15:02;8.80;;;7.00;;
30458;SDS011;17254;50.976;7.034;2023-05-07T00:15:09;9.26;;;7.18;;
30458;SDS011;17254;50.976;7.034;2023-05-07T00:15:15;9.33;;;7.40;;
30458;SDS011;17254;50.976;7.034;2023-05-07T00:15:21;9.05;;;7.38;;
30458;SDS011;17254;50.976;7.034;2023-05-07T00:15:27;8.75;;;7.38;;
30458;SDS011;17254;50.976;7.034;2023-05-07T00:15:33;8.75;;;7.68;;
30458;SDS011;17254;50.976;7.034;2023-05-07T00:15:39;8.70;;;7.80;;
30458;SDS011;17254;50.976;7.034;2023-05-07T00:15:45;9.00;;;7.78;;
30458;SDS011;17254;50.976;7.034;2023-05-07T00:15:51;9.18;;;7.95;;
30458;SDS011;17254;50.976;7.034;2023-05-07T00:15:58;8.90;;;7.93;;
30458;SDS011;17254;50.976;7.034;2023-05-07T00:16:04;8.68;;;7.78;;
30458;SDS011;17254;50.976;7.034;2023-05-07T00:16:10;8.82;;;7.80;;
30458;SDS011;17254;50.976;7.034;2023-05-07T00:16:16;8.50;;;7.60;;
30458;SDS011;17254;50.976;7.034;2023-05-07T00:16:22;8.55;;;7.63;;
30458;SDS011;17254;50.976;7.034;2023-05-07T00:16:28;8.70;;;7.70;;
30458;SDS011;17254;50.976;7.034;2023-05-07T00:16:33;8.93;;;7.60;;
30458;SDS011;17254;50.976;7.034;2023-05-07T00:16:39;8.88;;;7.50;;
30458;SDS011;17254;50.976;7.034;2023-05-07T00:16:45;9.30;;;7.60;;
30458;SDS011;17254;50.976;7.034;2023-05-07T00:16:51;9.63;;;7.57;;
30458;SDS011;17254;50.976;7.034;2023-05-07T00:16:57;9.60;;;7.50;;
30458;SDS011;17254;50.976;7.034;2023-05-07T00:17:03;9.43;;;7.40;;
30458;SDS011;17254;50.976;7.034;2023-05-07T00:17:09;9.48;;;7.35;;
30458;SDS011;17254;50.976;7.034;2023-05-07T00:17:15;9.32;;;7.38;;
30458;SDS011;17254;50.976;7.034;2023-05-07T00:17:22;8.94;;;7.32;;
30458;SDS011;17254;50.976;7.034;2023-05-07T00:17:28;9.20;;;7.43;;
30458;SDS011;17254;50.976;7.034;2023-05-07T00:17:34;9.13;;;7.50;;
30458;SDS011;17254;50.976;7.034;2023-05-07T00:17:40;8.88;;;7.57;;
30458;SDS011;17254;50.976;7.034;2023-05-07T00:17:46;8.53;;;7.60;;
30458;SDS011;17254;50.976;7.034;2023-05-07T00:17:51;8.75;;;7.63;;
30458;SDS011;17254;50.976;7.034;2023-05-07T00:17:58;9.83;;;7.77;;
30458;SDS011;17254;50.976;7.034;2023-05-07T00:18:04;10.68;;;7.82;;
30458;SDS011;17254;50.976;7.034;2023-05-07T00:18:10;10.60;;;7.65;;
30458;SDS011;17254;50.976;7.034;2023-05-07T00:18:16;11.10;;;7.70;;
30458;SDS011;17254;50.976;7.034;2023-05-07T00:18:26;11.33;;;7.73;;
30458;SDS011;17254;50.976;7.034;2023-05-07T00:18:31;11.02;;;7.70;;
30458;SDS011;17254;50.976;7.034;2023-05-07T00:18:37;11.50;;;7.93;;
30458;SDS011;17254;50.976;7.034;2023-05-07T00:18:43;11.20;;;7.93;;
30458;SDS011;17254;50.976;7.034;2023-05-07T00:18:50;10.73;;;8.00;;
30458;SDS011;17254;50.976;7.034;2023-05-07T00:18:56;9.90;;;7.90;;
30458;SDS011;17254;50.976;7.034;2023-05-07T00:19:03;9.02;;;7.95;;
30458;SDS011;17254;50.976;7.034;2023-05-07T00:19:09;8.90;;;8.00;;
30458;SDS011;17254;50.976;7.034;2023-05-07T00:19:15;9.03;;;7.87;;
30458;SDS011;17254;50.976;7.034;2023-05-07T00:19:21;9.38;;;7.90;;
30458;SDS011;17254;50.976;7.034;2023-05-07T00:19:27;9.50;;;7.93;;
30458;SDS011;17254;50.976;7.034;2023-05-07T00:19:32;9.37;;;7.80;;
30458;SDS011;17254;50.976;7.034;2023-05-07T00:19:38;9.65;;;7.72;;
30458;SDS011;17254;50.976;7.034;2023-05-07T00:19:44;9.43;;;7.65;;
30458;SDS011;17254;50.976;7.034;2023-05-07T00:19:50;9.45;;;7.65;;
30458;SDS011;17254;50.976;7.034;2023-05-07T00:19:56;9.30;;;7.55;;
30458;SDS011;17254;50.976;7.034;2023-05-07T00:20:02;9.20;;;7.50;;
30458;SDS011;17254;50.976;7.034;2023-05-07T00:20:09;9.00;;;7.70;;
30458;SDS011;17254;50.976;7.034;2023-05-07T00:20:15;8.97;;;7.60;;
30458;SDS011;17254;50.976;7.034;2023-05-07T00:20:22;9.26;;;7.70;;
30458;SDS011;17254;50.976;7.034;2023-05-07T00:20:28;9.87;;;7.87;;
30458;SDS011;17254;50.976;7.034;2023-05-07T00:20:34;10.20;;;7.88;;
30458;SDS011;17254;50.976;7.034;2023-05-07T00:20:40;10.18;;;7.70;;
30458;SDS011;17254;50.976;7.034;2023-05-07T00:20:46;10.65;;;7.80;;
30458;SDS011;17254;50.976;7.034;2023-05-07T00:20:51;10.18;;;7.75;;
30458;SDS011;17254;50.976;7.034;2023-05-07T00:20:57;9.52;;;7.55;;
30458;SDS011;17254;50.976;7.034;2023-05-07T00:21:03;10.17;;;7.40;;
30458;SDS011;17254;50.976;7.034;2023-05-07T00:21:09;10.13;;;7.47;;
30458;SDS011;17254;50.976;7.034;2023-05-07T00:21:15;9.52;;;7.70;;
30458;SDS011;17254;50.976;7.034;2023-05-07T00:21:21;9.83;;;7.77;;
30458;SDS011;17254;50.976;7.034;2023-05-07T00:21:27;10.20;;;7.88;;
30458;SDS011;17254;50.976;7.034;2023-05-07T00:21:33;9.32;;;8.07;;
30458;SDS011;17254;50.976;7.034;2023-05-07T00:21:39;9.07;;;7.85;;
30458;SDS011;17254;50.976;7.034;2023-05-07T00:21:45;8.95;;;7.70;;
30458;SDS011;17254;50.976;7.034;2023-05-07T00:21:51;8.77;;;7.67;;
30458;SDS011;17254;50.976;7.034;2023-05-07T00:21:59;8.74;;;7.68;;
30458;SDS011;17254;50.976;7.034;2023-05-07T00:22:05;8.70;;;7.73;;
30458;SDS011;17254;50.976;7.034;2023-05-07T00:22:11;8.90;;;7.73;;
30458;SDS011;17254;50.976;7.034;2023-05-07T00:22:17;8.88;;;7.70;;
30458;SDS011;17254;50.976;7.034;2023-05-07T00:22:23;8.90;;;7.65;;
30458;SDS011;17254;50.976;7.034;2023-05-07T00:22:28;9.00;;;7.65;;
30458;SDS011;17254;50.976;7.034;2023-05-07T00:22:35;8.93;;;7.67;;
30458;SDS011;17254;50.976;7.034;2023-05-07T00:22:41;8.90;;;7.60;;
30458;SDS011;17254;50.976;7.034;2023-05-07T00:22:47;8.85;;;7.55;;
30458;SDS011;17254;50.976;7.034;2023-05-07T00:22:53;9.07;;;7.80;;
30458;SDS011;17254;50.976;7.034;2023-05-07T00:22:58;9.07;;;7.68;;
30458;SDS011;17254;50.976;7.034;2023-05-07T00:23:04;9.07;;;7.75;;
30458;SDS011;17254;50.976;7.034;2023-05-07T00:23:10;9.07;;;7.83;;
30458;SDS011;17254;50.976;7.034;2023-05-07T00:23:16;9.30;;;7.95;;
30458;SDS011;17254;50.976;7.034;2023-05-07T00:23:22;8.95;;;7.78;;
30458;SDS011;17254;50.976;7.034;2023-05-07T00:23:28;9.20;;;7.57;;
30458;SDS011;17254;50.976;7.034;2023-05-07T00:23:35;10.05;;;7.50;;
30458;SDS011;17254;50.976;7.034;2023-05-07T00:23:41;10.20;;;7.45;;
30458;SDS011;17254;50.976;7.034;2023-05-07T00:23:47;10.27;;;7.23;;
30458;SDS011;17254;50.976;7.034;2023-05-07T00:23:53;10.47;;;7.17;;
30458;SDS011;17254;50.976;7.034;2023-05-07T00:23:59;9.95;;;7.28;;
30458;SDS011;17254;50.976;7.034;2023-05-07T00:24:05;9.55;;;7.32;;
30458;SDS011;17254;50.976;7.034;2023-05-07T00:24:10;9.40;;;7.35;;
30458;SDS011;17254;50.976;7.034;2023-05-07T00:24:16;9.10;;;7.45;;
30458;SDS011;17254;50.976;7.034;2023-05-07T00:24:22;8.80;;;7.60;;
30458;SDS011;17254;50.976;7.034;2023-05-07T00:24:29;9.18;;;7.60;;
30458;SDS011;17254;50.976;7.034;2023-05-07T00:24:34;9.65;;;7.80;;
30458;SDS011;17254;50.976;7.034;2023-05-07T00:24:40;9.85;;;7.95;;
30458;SDS011;17254;50.976;7.034;2023-05-07T00:24:46;9.97;;;8.03;;
30458;SDS011;17254;50.976;7.034;2023-05-07T00:24:52;10.40;;;7.97;;
30458;SDS011;17254;50.976;7.034;2023-05-07T00:24:58;9.77;;;7.75;;
30458;SDS011;17254;50.976;7.034;2023-05-07T00:25:05;8.63;;;7.47;;
30458;SDS011;17254;50.976;7.034;2023-05-07T00:25:12;9.30;;;7.63;;
30458;SDS011;17254;50.976;7.034;2023-05-07T00:25:18;9.25;;;7.65;;
30458;SDS011;17254;50.976;7.034;2023-05-07T00:25:24;9.43;;;7.83;;
30458;SDS011;17254;50.976;7.034;2023-05-07T00:25:30;9.70;;;8.02;;
30458;SDS011;17254;50.976;7.034;2023-05-07T00:25:36;9.82;;;8.00;;
30458;SDS011;17254;50.976;7.034;2023-05-07T00:25:42;9.07;;;7.70;;
30458;SDS011;17254;50.976;7.034;2023-05-07T00:25:48;9.27;;;7.75;;
30458;SDS011;17254;50.976;7.034;2023-05-07T00:25:54;8.77;;;7.70;;
30458;SDS011;17254;50.976;7.034;2023-05-07T00:26:00;8.77;;;7.78;;
30458;SDS011;17254;50.976;7.034;2023-05-07T00:26:06;9.18;;;8.18;;
30458;SDS011;17254;50.976;7.034;2023-05-07T00:26:11;9.38;;;8.07;;
30458;SDS011;17254;50.976;7.034;2023-05-07T00:26:18;9.78;;;8.02;;
30458;SDS011;17254;50.976;7.034;2023-05-07T00:26:26;9.70;;;7.95;;
30458;SDS011;17254;50.976;7.034;2023-05-07T00:26:33;10.16;;;7.90;;
30458;SDS011;17254;50.976;7.034;2023-05-07T00:26:39;9.88;;;7.93;;
30458;SDS011;17254;50.976;7.034;2023-05-07T00:26:45;9.85;;;7.97;;
30458;SDS011;17254;50.976;7.034;2023-05-07T00:26:51;9.80;;;8.17;;
30458;SDS011;17254;50.976;7.034;2023-05-07T00:26:57;10.23;;;8.10;;
30458;SDS011;17254;50.976;7.034;2023-05-07T00:27:03;10.07;;;8.10;;
30458;SDS011;17254;50.976;7.034;2023-05-07T00:27:09;9.85;;;7.95;;
30458;SDS011;17254;50.976;7.034;2023-05-07T00:27:15;9.15;;;7.85;;
30458;SDS011;17254;50.976;7.034;2023-05-07T00:27:21;9.70;;;7.72;;
30458;SDS011;17254;50.976;7.034;2023-05-07T00:27:27;9.98;;;7.75;;
30458;SDS011;17254;50.976;7.034;2023-05-07T00:27:33;9.88;;;7.93;;
30458;SDS011;17254;50.976;7.034;2023-05-07T00:27:39;10.82;;;8.07;;
30458;SDS011;17254;50.976;7.034;2023-05-07T00:27:45;11.10;;;8.32;;
30458;SDS011;17254;50.976;7.034;2023-05-07T00:27:51;11.17;;;8.40;;
30458;SDS011;17254;50.976;7.034;2023-05-07T00:27:57;10.95;;;8.50;;
30458;SDS011;17254;50.976;7.034;2023-05-07T00:28:07;11.43;;;8.33;;
30458;SDS011;17254;50.976;7.034;2023-05-07T00:28:14;11.72;;;8.10;;
30458;SDS011;17254;50.976;7.034;2023-05-07T00:28:20;11.67;;;8.00;;
30458;SDS011;17254;50.976;7.034;2023-05-07T00:28:26;11.00;;;7.97;;
30458;SDS011;17254;50.976;7.034;2023-05-07T00:28:32;10.90;;;8.10;;
30458;SDS011;17254;50.976;7.034;2023-05-07T00:28:38;9.67;;;8.10;;
30458;SDS011;17254;50.976;7.034;2023-05-07T00:28:44;9.30;;;8.13;;
30458;SDS011;17254;50.976;7.034;2023-05-07T00:28:50;9.55;;;8.43;;
30458;SDS011;17254;50.976;7.034;2023-05-07T00:28:56;13.15;;;8.52;;
30458;SDS011;17254;50.976;7.034;2023-05-07T00:29:03;13.20;;;8.48;;
30458;SDS011;17254;50.976;7.034;2023-05-07T00:29:09;13.22;;;8.38;;
30458;SDS011;17254;50.976;7.034;2023-05-07T00:29:15;13.50;;;8.35;;
30458;SDS011;17254;50.976;7.034;2023-05-07T00:29:21;13.30;;;8.15;;
30458;SDS011;17254;50.976;7.034;2023-05-07T00:29:27;10.10;;;8.03;;
30458;SDS011;17254;50.976;7.034;2023-05-07T00:29:33;10.60;;;7.90;;
30458;SDS011;17254;50.976;7.034;2023-05-07T00:29:39;10.75;;;7.82;;
30458;SDS011;17254;50.976;7.034;2023-05-07T00:29:45;10.55;;;7.90;;
30458;SDS011;17254;50.976;7.034;2023-05-07T00:29:51;10.23;;;7.88;;
30458;SDS011;17254;50.976;7.034;2023-05-07T00:29:57;9.98;;;7.93;;
30458;SDS011;17254;50.976;7.034;2023-05-07T00:30:03;9.65;;;8.00;;
30458;SDS011;17254;50.976;7.034;2023-05-07T00:30:11;9.28;;;8.00;;
30458;SDS011;17254;50.976;7.034;2023-05-07T00:30:17;9.23;;;7.90;;
30458;SDS011;17254;50.976;7.034;2023-05-07T00:30:23;9.43;;;8.00;;
30458;SDS011;17254;50.976;7.034;2023-05-07T00:30:29;9.20;;;7.90;;
30458;SDS011;17254;50.976;7.034;2023-05-07T00:30:35;9.80;;;7.93;;
30458;SDS011;17254;50.976;7.034;2023-05-07T00:30:41;9.98;;;8.00;;
30458;SDS011;17254;50.976;7.034;2023-05-07T00:30:47;9.77;;;8.07;;
30458;SDS011;17254;50.976;7.034;2023-05-07T00:30:53;9.75;;;7.95;;
30458;SDS011;17254;50.976;7.034;2023-05-07T00:31:00;9.77;;;8.00;;
30458;SDS011;17254;50.976;7.034;2023-05-07T00:31:06;9.35;;;7.90;;
30458;SDS011;17254;50.976;7.034;2023-05-07T00:31:11;9.70;;;7.83;;
30458;SDS011;17254;50.976;7.034;2023-05-07T00:31:18;9.80;;;7.78;;
30458;SDS011;17254;50.976;7.034;2023-05-07T00:31:24;9.74;;;7.92;;
30458;SDS011;17254;50.976;7.034;2023-05-07T00:31:30;9.48;;;7.88;;
30458;SDS011;17254;50.976;7.034;2023-05-07T00:31:36;9.30;;;7.80;;
30458;SDS011;17254;50.976;7.034;2023-05-07T00:31:42;9.18;;;7.78;;
30458;SDS011;17254;50.976;7.034;2023-05-07T00:31:48;9.35;;;7.85;;
30458;SDS011;17254;50.976;7.034;2023-05-07T00:31:54;9.23;;;7.50;;
30458;SDS011;17254;50.976;7.034;2023-05-07T00:32:00;9.27;;;7.57;;
30458;SDS011;17254;50.976;7.034;2023-05-07T00:32:06;9.55;;;7.57;;
30458;SDS011;17254;50.976;7.034;2023-05-07T00:32:13;9.02;;;7.80;;
30458;SDS011;17254;50.976;7.034;2023-05-07T00:32:19;9.10;;;7.87;;
30458;SDS011;17254;50.976;7.034;2023-05-07T00:32:25;9.32;;;8.20;;
30458;SDS011;17254;50.976;7.034;2023-05-07T00:32:30;9.30;;;8.13;;
30458;SDS011;17254;50.976;7.034;2023-05-07T00:32:36;9.90;;;8.30;;
30458;SDS011;17254;50.976;7.034;2023-05-07T00:32:43;10.44;;;8.16;;
30458;SDS011;17254;50.976;7.034;2023-05-07T00:32:50;10.56;;;8.08;;
30458;SDS011;17254;50.976;7.034;2023-05-07T00:32:57;11.00;;;8.04;;
30458;SDS011;17254;50.976;7.034;2023-05-07T00:33:03;11.27;;;8.23;;
30458;SDS011;17254;50.976;7.034;2023-05-07T00:33:09;10.70;;;8.15;;
30458;SDS011;17254;50.976;7.034;2023-05-07T00:33:15;10.30;;;8.10;;
30458;SDS011;17254;50.976;7.034;2023-05-07T00:33:21;10.52;;;8.10;;
30458;SDS011;17254;50.976;7.034;2023-05-07T00:33:27;10.50;;;8.10;;
30458;SDS011;17254;50.976;7.034;2023-05-07T00:33:33;10.67;;;7.97;;
30458;SDS011;17254;50.976;7.034;2023-05-07T00:33:39;10.23;;;7.93;;
30458;SDS011;17254;50.976;7.034;2023-05-07T00:33:45;10.32;;;8.05;;
30458;SDS011;17254;50.976;7.034;2023-05-07T00:33:51;10.23;;;8.02;;
30458;SDS011;17254;50.976;7.034;2023-05-07T00:33:56;10.40;;;8.10;;
30458;SDS011;17254;50.976;7.034;2023-05-07T00:34:02;10.35;;;8.23;;
30458;SDS011;17254;50.976;7.034;2023-05-07T00:34:08;10.00;;;8.20;;
30458;SDS011;17254;50.976;7.034;2023-05-07T00:34:14;9.70;;;8.14;;
30458;SDS011;17254;50.976;7.034;2023-05-07T00:34:20;9.45;;;8.20;;
30458;SDS011;17254;50.976;7.034;2023-05-07T00:34:27;8.80;;;7.90;;
30458;SDS011;17254;50.976;7.034;2023-05-07T00:34:33;8.65;;;7.75;;
30458;SDS011;17254;50.976;7.034;2023-05-07T00:34:40;9.02;;;7.70;;
30458;SDS011;17254;50.976;7.034;2023-05-07T00:34:46;9.73;;;7.67;;
30458;SDS011;17254;50.976;7.034;2023-05-07T00:34:52;9.88;;;7.57;;
30458;SDS011;17254;50.976;7.034;2023-05-07T00:34:58;10.65;;;7.85;;
30458;SDS011;17254;50.976;7.034;2023-05-07T00:35:04;11.43;;;8.13;;
30458;SDS011;17254;50.976;7.034;2023-05-07T00:35:11;11.17;;;8.10;;
30458;SDS011;17254;50.976;7.034;2023-05-07T00:35:17;10.98;;;8.18;;
30458;SDS011;17254;50.976;7.034;2023-05-07T00:35:23;11.13;;;8.20;;
30458;SDS011;17254;50.976;7.034;2023-05-07T00:35:29;10.80;;;8.20;;
30458;SDS011;17254;50.976;7.034;2023-05-07T00:35:35;11.08;;;8.20;;
30458;SDS011;17254;50.976;7.034;2023-05-07T00:35:41;10.97;;;8.23;;
30458;SDS011;17254;50.976;7.034;2023-05-07T00:35:47;10.53;;;8.10;;
30458;SDS011;17254;50.976;7.034;2023-05-07T00:35:53;9.93;;;8.10;;
30458;SDS011;17254;50.976;7.034;2023-05-07T00:35:59;9.37;;;7.97;;
30458;SDS011;17254;50.976;7.034;2023-05-07T00:36:07;8.72;;;7.83;;
30458;SDS011;17254;50.976;7.034;2023-05-07T00:36:13;8.70;;;7.80;;
30458;SDS011;17254;50.976;7.034;2023-05-07T00:36:19;8.95;;;8.05;;
30458;SDS011;17254;50.976;7.034;2023-05-07T00:36:25;8.97;;;8.03;;
30458;SDS011;17254;50.976;7.034;2023-05-07T00:36:31;9.18;;;8.13;;
30458;SDS011;17254;50.976;7.034;2023-05-07T00:36:37;9.43;;;8.20;;
30458;SDS011;17254;50.976;7.034;2023-05-07T00:36:43;9.63;;;8.30;;
30458;SDS011;17254;50.976;7.034;2023-05-07T00:36:49;9.35;;;8.10;;
30458;SDS011;17254;50.976;7.034;2023-05-07T00:36:55;9.73;;;8.10;;
30458;SDS011;17254;50.976;7.034;2023-05-07T00:37:01;9.60;;;8.05;;
30458;SDS011;17254;50.976;7.034;2023-05-07T00:37:07;9.90;;;8.10;;
30458;SDS011;17254;50.976;7.034;2023-05-07T00:37:13;10.82;;;8.18;;